sensor_id;sensor_type;location;lat;lon;timestamp;temperature;humidity
26182;DHT22;13927;51.534;11.866;2023-04-22T00:01:16;9.20;99.90
26182;DHT22;13927;51.534;11.866;2023-04-22T00:03:42;9.20;99.90
26182;DHT22;13927;51.534;11.866;2023-04-22T00:06:09;9.20;99.90
26182;DHT22;13927;51.534;11.866;2023-04-22T00:08:35;9.20;99.90
26182;DHT22;13927;51.534;11.866;2023-04-22T00:11:01;9.20;99.90
26182;DHT22;13927;51.534;11.866;2023-04-22T00:13:27;9.10;99.90
26182;DHT22;13927;51.534;11.866;2023-04-22T00:15:53;9.10;99.90
26182;DHT22;13927;51.534;11.866;2023-04-22T00:18:19;9.20;99.90
26182;DHT22;13927;51.534;11.866;2023-04-22T00:20:45;9.10;99.90
26182;DHT22;13927;51.534;11.866;2023-04-22T00:23:11;9.10;99.90
26182;DHT22;13927;51.534;11.866;2023-04-22T00:25:38;9.10;99.90
26182;DHT22;13927;51.534;11.866;2023-04-22T00:28:05;9.10;99.90
26182;DHT22;13927;51.534;11.866;2023-04-22T00:30:31;9.10;99.90
26182;DHT22;13927;51.534;11.866;2023-04-22T00:32:56;9.10;99.90
26182;DHT22;13927;51.534;11.866;2023-04-22T00:35:22;9.10;99.90
26182;DHT22;13927;51.534;11.866;2023-04-22T00:37:48;9.10;99.90
26182;DHT22;13927;51.534;11.866;2023-04-22T00:40:13;9.00;99.90
26182;DHT22;13927;51.534;11.866;2023-04-22T00:42:42;8.90;99.90
26182;DHT22;13927;51.534;11.866;2023-04-22T00:45:14;8.90;99.90
26182;DHT22;13927;51.534;11.866;2023-04-22T00:47:43;8.90;99.90
26182;DHT22;13927;51.534;11.866;2023-04-22T00:50:10;8.80;99.90
26182;DHT22;13927;51.534;11.866;2023-04-22T00:52:36;8.80;99.90
26182;DHT22;13927;51.534;11.866;2023-04-22T00:55:02;8.70;99.90
26182;DHT22;13927;51.534;11.866;2023-04-22T00:57:28;8.70;99.90
26182;DHT22;13927;51.534;11.866;2023-04-22T00:59:55;8.70;99.90
26182;DHT22;13927;51.534;11.866;2023-04-22T01:02:21;8.70;99.90
26182;DHT22;13927;51.534;11.866;2023-04-22T01:04:47;8.70;99.90
26182;DHT22;13927;51.534;11.866;2023-04-22T01:07:13;8.60;99.90
26182;DHT22;13927;51.534;11.866;2023-04-22T01:09:40;8.70;99.90
26182;DHT22;13927;51.534;11.866;2023-04-22T01:12:06;8.60;99.90
26182;DHT22;13927;51.534;11.866;2023-04-22T01:14:31;8.50;99.90
26182;DHT22;13927;51.534;11.866;2023-04-22T01:16:57;8.50;99.90
26182;DHT22;13927;51.534;11.866;2023-04-22T01:19:23;8.30;99.90
26182;DHT22;13927;51.534;11.866;2023-04-22T01:21:53;8.30;99.90
26182;DHT22;13927;51.534;11.866;2023-04-22T01:24:18;8.20;99.90
26182;DHT22;13927;51.534;11.866;2023-04-22T01:26:46;8.10;99.90
26182;DHT22;13927;51.534;11.866;2023-04-22T01:29:13;8.10;99.90
26182;DHT22;13927;51.534;11.866;2023-04-22T01:31:39;8.00;99.90
26182;DHT22;13927;51.534;11.866;2023-04-22T01:34:05;8.00;99.90
26182;DHT22;13927;51.534;11.866;2023-04-22T01:36:30;7.90;99.90
26182;DHT22;13927;51.534;11.866;2023-04-22T01:38:58;7.90;99.90
26182;DHT22;13927;51.534;11.866;2023-04-22T01:41:24;7.80;99.90
26182;DHT22;13927;51.534;11.866;2023-04-22T01:43:52;7.80;99.90
26182;DHT22;13927;51.534;11.866;2023-04-22T01:46:18;7.60;99.90
26182;DHT22;13927;51.534;11.866;2023-04-22T01:48:44;7.60;99.90
26182;DHT22;13927;51.534;11.866;2023-04-22T01:51:17;7.50;99.90
26182;DHT22;13927;51.534;11.866;2023-04-22T01:53:45;7.40;99.90
26182;DHT22;13927;51.534;11.866;2023-04-22T01:56:11;7.40;99.90
26182;DHT22;13927;51.534;11.866;2023-04-22T01:58:38;7.30;99.90
26182;DHT22;13927;51.534;11.866;2023-04-22T02:01:05;7.20;99.90
26182;DHT22;13927;51.534;11.866;2023-04-22T02:03:31;7.10;99.90
26182;DHT22;13927;51.534;11.866;2023-04-22T02:05:57;7.00;99.90
26182;DHT22;13927;51.534;11.866;2023-04-22T02:08:23;7.00;99.90
26182;DHT22;13927;51.534;11.866;2023-04-22T02:10:48;7.00;99.90
26182;DHT22;13927;51.534;11.866;2023-04-22T02:13:14;6.90;99.90
26182;DHT22;13927;51.534;11.866;2023-04-22T02:15:40;6.90;99.90
26182;DHT22;13927;51.534;11.866;2023-04-22T02:18:06;6.90;99.90
26182;DHT22;13927;51.534;11.866;2023-04-22T02:20:34;6.80;99.90
26182;DHT22;13927;51.534;11.866;2023-04-22T02:23:01;6.80;99.90
26182;DHT22;13927;51.534;11.866;2023-04-22T02:25:28;6.80;99.90
26182;DHT22;13927;51.534;11.866;2023-04-22T02:27:54;6.80;99.90
26182;DHT22;13927;51.534;11.866;2023-04-22T02:30:20;6.80;99.90
26182;DHT22;13927;51.534;11.866;2023-04-22T02:32:46;6.80;99.90
26182;DHT22;13927;51.534;11.866;2023-04-22T02:35:11;6.80;99.90
26182;DHT22;13927;51.534;11.866;2023-04-22T02:37:37;6.80;99.90
26182;DHT22;13927;51.534;11.866;2023-04-22T02:40:04;6.80;99.90
26182;DHT22;13927;51.534;11.866;2023-04-22T02:42:31;6.80;99.90
26182;DHT22;13927;51.534;11.866;2023-04-22T02:44:57;6.80;99.90
26182;DHT22;13927;51.534;11.866;2023-04-22T02:47:23;6.70;99.90
26182;DHT22;13927;51.534;11.866;2023-04-22T02:49:49;6.70;99.90
26182;DHT22;13927;51.534;11.866;2023-04-22T02:52:15;6.60;99.90
26182;DHT22;13927;51.534;11.866;2023-04-22T02:54:41;6.60;99.90
26182;DHT22;13927;51.534;11.866;2023-04-22T02:57:06;6.60;99.90
26182;DHT22;13927;51.534;11.866;2023-04-22T02:59:33;6.60;99.90
26182;DHT22;13927;51.534;11.866;2023-04-22T03:01:59;6.50;99.90
26182;DHT22;13927;51.534;11.866;2023-04-22T03:04:25;6.50;99.90
26182;DHT22;13927;51.534;11.866;2023-04-22T03:06:51;6.50;99.90
26182;DHT22;13927;51.534;11.866;2023-04-22T03:09:17;6.50;99.90
26182;DHT22;13927;51.534;11.866;2023-04-22T03:11:43;6.40;99.90
26182;DHT22;13927;51.534;11.866;2023-04-22T03:14:09;6.40;99.90
26182;DHT22;13927;51.534;11.866;2023-04-22T03:16:35;6.40;99.90
26182;DHT22;13927;51.534;11.866;2023-04-22T03:19:01;6.40;99.90
26182;DHT22;13927;51.534;11.866;2023-04-22T03:21:27;6.40;99.90
26182;DHT22;13927;51.534;11.866;2023-04-22T03:23:53;6.40;99.90
26182;DHT22;13927;51.534;11.866;2023-04-22T03:26:18;6.40;99.90
26182;DHT22;13927;51.534;11.866;2023-04-22T03:28:44;6.40;99.90
26182;DHT22;13927;51.534;11.866;2023-04-22T03:31:10;6.30;99.90
26182;DHT22;13927;51.534;11.866;2023-04-22T03:33:36;6.30;99.90
26182;DHT22;13927;51.534;11.866;2023-04-22T03:36:01;6.30;99.90
26182;DHT22;13927;51.534;11.866;2023-04-22T03:38:27;6.30;99.90
26182;DHT22;13927;51.534;11.866;2023-04-22T03:40:53;6.30;99.90
26182;DHT22;13927;51.534;11.866;2023-04-22T03:43:18;6.30;99.90
26182;DHT22;13927;51.534;11.866;2023-04-22T03:45:45;6.30;99.90
26182;DHT22;13927;51.534;11.866;2023-04-22T03:48:11;6.20;99.90
26182;DHT22;13927;51.534;11.866;2023-04-22T03:50:36;6.30;99.90
26182;DHT22;13927;51.534;11.866;2023-04-22T03:53:02;6.20;99.90
26182;DHT22;13927;51.534;11.866;2023-04-22T03:55:28;6.30;99.90
26182;DHT22;13927;51.534;11.866;2023-04-22T03:57:53;6.30;99.90
26182;DHT22;13927;51.534;11.866;2023-04-22T04:00:19;6.30;99.90
26182;DHT22;13927;51.534;11.866;2023-04-22T04:02:45;6.30;99.90
26182;DHT22;13927;51.534;11.866;2023-04-22T04:05:11;6.30;99.90
26182;DHT22;13927;51.534;11.866;2023-04-22T04:07:37;6.30;99.90
26182;DHT22;13927;51.534;11.866;2023-04-22T04:10:03;6.30;99.90
26182;DHT22;13927;51.534;11.866;2023-04-22T04:12:29;6.30;99.90
26182;DHT22;13927;51.534;11.866;2023-04-22T04:14:54;6.40;99.90
26182;DHT22;13927;51.534;11.866;2023-04-22T04:17:20;6.40;99.90
26182;DHT22;13927;51.534;11.866;2023-04-22T04:19:53;6.40;99.90
26182;DHT22;13927;51.534;11.866;2023-04-22T04:22:19;6.40;99.90
26182;DHT22;13927;51.534;11.866;2023-04-22T04:24:45;6.50;99.90
26182;DHT22;13927;51.534;11.866;2023-04-22T04:27:12;6.50;99.90
26182;DHT22;13927;51.534;11.866;2023-04-22T04:29:38;6.60;99.90
26182;DHT22;13927;51.534;11.866;2023-04-22T04:32:06;6.60;99.90
26182;DHT22;13927;51.534;11.866;2023-04-22T04:34:33;6.70;99.90
26182;DHT22;13927;51.534;11.866;2023-04-22T04:36:59;6.80;99.90
26182;DHT22;13927;51.534;11.866;2023-04-22T04:39:25;6.90;99.90
26182;DHT22;13927;51.534;11.866;2023-04-22T04:41:54;7.00;99.90
26182;DHT22;13927;51.534;11.866;2023-04-22T04:44:20;7.10;99.90
26182;DHT22;13927;51.534;11.866;2023-04-22T04:46:51;7.10;99.90
26182;DHT22;13927;51.534;11.866;2023-04-22T04:49:17;7.20;99.90
26182;DHT22;13927;51.534;11.866;2023-04-22T04:51:42;7.30;99.90
26182;DHT22;13927;51.534;11.866;2023-04-22T04:54:08;7.40;99.90
26182;DHT22;13927;51.534;11.866;2023-04-22T04:56:34;7.50;99.90
26182;DHT22;13927;51.534;11.866;2023-04-22T04:59:00;7.60;99.90
26182;DHT22;13927;51.534;11.866;2023-04-22T05:01:25;7.70;99.90
26182;DHT22;13927;51.534;11.866;2023-04-22T05:03:51;7.80;99.90
26182;DHT22;13927;51.534;11.866;2023-04-22T05:06:17;8.00;99.90
26182;DHT22;13927;51.534;11.866;2023-04-22T05:08:42;8.10;99.90
26182;DHT22;13927;51.534;11.866;2023-04-22T05:11:08;8.20;99.90
26182;DHT22;13927;51.534;11.866;2023-04-22T05:13:34;8.40;99.90
26182;DHT22;13927;51.534;11.866;2023-04-22T05:15:59;8.50;99.90
26182;DHT22;13927;51.534;11.866;2023-04-22T05:18:25;8.60;99.90
26182;DHT22;13927;51.534;11.866;2023-04-22T05:20:51;8.80;99.90
26182;DHT22;13927;51.534;11.866;2023-04-22T05:23:17;8.90;99.90
26182;DHT22;13927;51.534;11.866;2023-04-22T05:25:42;9.00;99.90
26182;DHT22;13927;51.534;11.866;2023-04-22T05:28:08;9.20;99.90
26182;DHT22;13927;51.534;11.866;2023-04-22T05:30:34;9.40;99.90
26182;DHT22;13927;51.534;11.866;2023-04-22T05:33:00;9.50;99.90
26182;DHT22;13927;51.534;11.866;2023-04-22T05:35:26;9.60;99.90
26182;DHT22;13927;51.534;11.866;2023-04-22T05:37:51;9.70;99.90
26182;DHT22;13927;51.534;11.866;2023-04-22T05:40:17;9.80;99.90
26182;DHT22;13927;51.534;11.866;2023-04-22T05:42:43;9.80;99.90
26182;DHT22;13927;51.534;11.866;2023-04-22T05:45:09;9.80;99.90
26182;DHT22;13927;51.534;11.866;2023-04-22T05:47:35;9.90;99.90
26182;DHT22;13927;51.534;11.866;2023-04-22T05:50:01;10.00;99.90
26182;DHT22;13927;51.534;11.866;2023-04-22T05:52:28;10.10;99.90
26182;DHT22;13927;51.534;11.866;2023-04-22T05:54:55;10.20;99.90
26182;DHT22;13927;51.534;11.866;2023-04-22T05:57:20;10.40;99.90
26182;DHT22;13927;51.534;11.866;2023-04-22T05:59:46;10.50;99.90
26182;DHT22;13927;51.534;11.866;2023-04-22T06:02:12;10.70;99.90
26182;DHT22;13927;51.534;11.866;2023-04-22T06:04:39;11.00;99.90
26182;DHT22;13927;51.534;11.866;2023-04-22T06:07:05;11.10;99.90
26182;DHT22;13927;51.534;11.866;2023-04-22T06:09:31;11.20;99.90
26182;DHT22;13927;51.534;11.866;2023-04-22T06:11:58;11.40;99.90
26182;DHT22;13927;51.534;11.866;2023-04-22T06:14:24;11.60;99.90
26182;DHT22;13927;51.534;11.866;2023-04-22T06:16:50;11.70;99.90
26182;DHT22;13927;51.534;11.866;2023-04-22T06:19:17;11.90;99.90
26182;DHT22;13927;51.534;11.866;2023-04-22T06:21:43;12.10;99.90
26182;DHT22;13927;51.534;11.866;2023-04-22T06:24:09;12.40;99.90
26182;DHT22;13927;51.534;11.866;2023-04-22T06:26:36;12.60;99.90
26182;DHT22;13927;51.534;11.866;2023-04-22T06:29:02;12.90;99.90
26182;DHT22;13927;51.534;11.866;2023-04-22T06:31:32;13.20;99.90
26182;DHT22;13927;51.534;11.866;2023-04-22T06:33:58;13.40;99.90
26182;DHT22;13927;51.534;11.866;2023-04-22T06:36:25;13.70;99.90
26182;DHT22;13927;51.534;11.866;2023-04-22T06:38:52;14.00;99.90
26182;DHT22;13927;51.534;11.866;2023-04-22T06:41:18;14.20;99.90
26182;DHT22;13927;51.534;11.866;2023-04-22T06:43:44;14.50;99.90
26182;DHT22;13927;51.534;11.866;2023-04-22T06:46:10;14.70;99.90
26182;DHT22;13927;51.534;11.866;2023-04-22T06:48:37;15.00;99.90
26182;DHT22;13927;51.534;11.866;2023-04-22T06:51:03;15.20;99.90
26182;DHT22;13927;51.534;11.866;2023-04-22T06:53:30;15.40;99.90
26182;DHT22;13927;51.534;11.866;2023-04-22T06:55:56;15.60;99.90
26182;DHT22;13927;51.534;11.866;2023-04-22T06:58:22;15.90;99.90
26182;DHT22;13927;51.534;11.866;2023-04-22T07:00:48;16.10;99.90
26182;DHT22;13927;51.534;11.866;2023-04-22T07:03:14;16.20;99.90
26182;DHT22;13927;51.534;11.866;2023-04-22T07:05:40;16.40;99.90
26182;DHT22;13927;51.534;11.866;2023-04-22T07:08:06;16.50;99.90
26182;DHT22;13927;51.534;11.866;2023-04-22T07:10:33;16.70;99.90
26182;DHT22;13927;51.534;11.866;2023-04-22T07:13:00;17.00;99.90
26182;DHT22;13927;51.534;11.866;2023-04-22T07:15:26;17.20;99.90
26182;DHT22;13927;51.534;11.866;2023-04-22T07:17:52;17.40;99.90
26182;DHT22;13927;51.534;11.866;2023-04-22T07:20:19;17.60;99.90
26182;DHT22;13927;51.534;11.866;2023-04-22T07:22:46;17.80;99.90
26182;DHT22;13927;51.534;11.866;2023-04-22T07:25:12;18.00;99.90
26182;DHT22;13927;51.534;11.866;2023-04-22T07:27:39;18.20;99.90
26182;DHT22;13927;51.534;11.866;2023-04-22T07:30:07;18.30;99.90
26182;DHT22;13927;51.534;11.866;2023-04-22T07:32:33;18.20;99.90
26182;DHT22;13927;51.534;11.866;2023-04-22T07:34:59;18.30;99.90
26182;DHT22;13927;51.534;11.866;2023-04-22T07:37:26;18.60;99.90
26182;DHT22;13927;51.534;11.866;2023-04-22T07:39:52;18.80;99.90
26182;DHT22;13927;51.534;11.866;2023-04-22T07:42:18;19.10;99.90
26182;DHT22;13927;51.534;11.866;2023-04-22T07:44:45;19.40;99.90
26182;DHT22;13927;51.534;11.866;2023-04-22T07:47:12;19.60;99.90
26182;DHT22;13927;51.534;11.866;2023-04-22T07:49:38;19.70;99.90
26182;DHT22;13927;51.534;11.866;2023-04-22T07:52:05;19.80;99.90
26182;DHT22;13927;51.534;11.866;2023-04-22T07:54:31;19.80;99.90
26182;DHT22;13927;51.534;11.866;2023-04-22T07:56:57;20.00;99.90
26182;DHT22;13927;51.534;11.866;2023-04-22T07:59:24;20.20;99.90
26182;DHT22;13927;51.534;11.866;2023-04-22T08:01:50;20.40;99.90
26182;DHT22;13927;51.534;11.866;2023-04-22T08:04:16;20.40;99.90
26182;DHT22;13927;51.534;11.866;2023-04-22T08:06:42;20.40;99.90
26182;DHT22;13927;51.534;11.866;2023-04-22T08:09:09;20.50;99.90
26182;DHT22;13927;51.534;11.866;2023-04-22T08:11:35;20.60;99.90
26182;DHT22;13927;51.534;11.866;2023-04-22T08:14:01;20.70;99.90
26182;DHT22;13927;51.534;11.866;2023-04-22T08:16:27;20.70;99.90
26182;DHT22;13927;51.534;11.866;2023-04-22T08:18:53;20.60;99.90
26182;DHT22;13927;51.534;11.866;2023-04-22T08:21:20;20.70;99.90
26182;DHT22;13927;51.534;11.866;2023-04-22T08:23:46;20.30;99.90
26182;DHT22;13927;51.534;11.866;2023-04-22T08:26:13;20.10;99.90
26182;DHT22;13927;51.534;11.866;2023-04-22T08:28:41;20.10;99.90
26182;DHT22;13927;51.534;11.866;2023-04-22T08:31:07;20.40;99.90
26182;DHT22;13927;51.534;11.866;2023-04-22T08:33:35;20.70;99.90
26182;DHT22;13927;51.534;11.866;2023-04-22T08:36:01;20.80;99.90
26182;DHT22;13927;51.534;11.866;2023-04-22T08:38:28;20.90;99.90
26182;DHT22;13927;51.534;11.866;2023-04-22T08:40:58;20.80;99.90
26182;DHT22;13927;51.534;11.866;2023-04-22T08:43:25;20.90;99.90
26182;DHT22;13927;51.534;11.866;2023-04-22T08:45:52;21.10;99.90
26182;DHT22;13927;51.534;11.866;2023-04-22T08:48:18;21.30;99.90
26182;DHT22;13927;51.534;11.866;2023-04-22T08:50:46;21.40;99.90
26182;DHT22;13927;51.534;11.866;2023-04-22T08:53:13;21.60;99.90
26182;DHT22;13927;51.534;11.866;2023-04-22T08:55:43;21.60;99.90
26182;DHT22;13927;51.534;11.866;2023-04-22T08:58:11;21.50;99.90
26182;DHT22;13927;51.534;11.866;2023-04-22T09:00:40;21.50;99.90
26182;DHT22;13927;51.534;11.866;2023-04-22T09:03:08;21.70;99.90
26182;DHT22;13927;51.534;11.866;2023-04-22T09:05:37;21.80;99.90
26182;DHT22;13927;51.534;11.866;2023-04-22T09:08:06;21.90;99.90
26182;DHT22;13927;51.534;11.866;2023-04-22T09:10:36;21.90;99.90
26182;DHT22;13927;51.534;11.866;2023-04-22T09:13:04;21.90;99.90
26182;DHT22;13927;51.534;11.866;2023-04-22T09:15:32;22.10;99.90
26182;DHT22;13927;51.534;11.866;2023-04-22T09:17:59;22.20;99.90
26182;DHT22;13927;51.534;11.866;2023-04-22T09:20:29;22.40;99.90
26182;DHT22;13927;51.534;11.866;2023-04-22T09:22:57;22.50;99.90
26182;DHT22;13927;51.534;11.866;2023-04-22T09:25:32;22.60;99.90
26182;DHT22;13927;51.534;11.866;2023-04-22T09:28:02;22.70;99.90
26182;DHT22;13927;51.534;11.866;2023-04-22T09:30:34;22.90;99.90
26182;DHT22;13927;51.534;11.866;2023-04-22T09:33:05;23.20;99.90
26182;DHT22;13927;51.534;11.866;2023-04-22T09:35:36;23.30;99.90
26182;DHT22;13927;51.534;11.866;2023-04-22T09:38:07;23.30;99.90
26182;DHT22;13927;51.534;11.866;2023-04-22T09:40:36;23.30;99.90
26182;DHT22;13927;51.534;11.866;2023-04-22T09:43:05;23.10;99.90
26182;DHT22;13927;51.534;11.866;2023-04-22T09:45:38;23.00;99.90
26182;DHT22;13927;51.534;11.866;2023-04-22T09:48:08;23.10;99.90
26182;DHT22;13927;51.534;11.866;2023-04-22T09:50:44;23.30;99.90
26182;DHT22;13927;51.534;11.866;2023-04-22T09:53:17;23.60;99.90
26182;DHT22;13927;51.534;11.866;2023-04-22T09:55:50;23.80;99.90
26182;DHT22;13927;51.534;11.866;2023-04-22T09:58:21;23.90;99.90
26182;DHT22;13927;51.534;11.866;2023-04-22T10:00:56;24.30;99.90
26182;DHT22;13927;51.534;11.866;2023-04-22T10:03:24;24.40;99.90
26182;DHT22;13927;51.534;11.866;2023-04-22T10:05:52;24.70;99.90
26182;DHT22;13927;51.534;11.866;2023-04-22T10:08:19;25.00;99.90
26182;DHT22;13927;51.534;11.866;2023-04-22T10:10:46;25.10;99.90
26182;DHT22;13927;51.534;11.866;2023-04-22T10:13:13;25.00;99.90
26182;DHT22;13927;51.534;11.866;2023-04-22T10:15:48;25.10;99.90
26182;DHT22;13927;51.534;11.866;2023-04-22T10:18:26;24.80;99.90
26182;DHT22;13927;51.534;11.866;2023-04-22T10:20:56;25.00;99.90
26182;DHT22;13927;51.534;11.866;2023-04-22T10:23:24;25.30;99.90
26182;DHT22;13927;51.534;11.866;2023-04-22T10:25:55;25.50;99.90
26182;DHT22;13927;51.534;11.866;2023-04-22T10:28:26;25.50;99.90
26182;DHT22;13927;51.534;11.866;2023-04-22T10:30:53;25.30;99.90
26182;DHT22;13927;51.534;11.866;2023-04-22T10:36:06;25.50;99.90
26182;DHT22;13927;51.534;11.866;2023-04-22T10:38:34;25.70;99.90
26182;DHT22;13927;51.534;11.866;2023-04-22T10:41:06;25.70;99.90
26182;DHT22;13927;51.534;11.866;2023-04-22T10:43:47;25.90;99.90
26182;DHT22;13927;51.534;11.866;2023-04-22T10:46:54;25.90;99.90
26182;DHT22;13927;51.534;11.866;2023-04-22T10:49:23;25.80;99.90
26182;DHT22;13927;51.534;11.866;2023-04-22T10:51:56;25.60;99.90
26182;DHT22;13927;51.534;11.866;2023-04-22T10:59:31;25.00;99.90
26182;DHT22;13927;51.534;11.866;2023-04-22T11:02:15;24.80;99.90
26182;DHT22;13927;51.534;11.866;2023-04-22T11:04:42;25.00;99.90
26182;DHT22;13927;51.534;11.866;2023-04-22T11:09:51;24.80;99.90
26182;DHT22;13927;51.534;11.866;2023-04-22T11:15:07;25.60;99.90
26182;DHT22;13927;51.534;11.866;2023-04-22T11:17:37;25.60;99.90
26182;DHT22;13927;51.534;11.866;2023-04-22T11:20:06;25.70;99.90
26182;DHT22;13927;51.534;11.866;2023-04-22T11:22:40;25.90;99.90
26182;DHT22;13927;51.534;11.866;2023-04-22T11:25:08;26.00;99.90
26182;DHT22;13927;51.534;11.866;2023-04-22T11:27:38;26.20;99.90
26182;DHT22;13927;51.534;11.866;2023-04-22T11:32:41;26.10;99.90
26182;DHT22;13927;51.534;11.866;2023-04-22T11:35:11;26.20;99.90
26182;DHT22;13927;51.534;11.866;2023-04-22T11:37:44;26.00;99.90
26182;DHT22;13927;51.534;11.866;2023-04-22T11:40:14;25.90;99.90
26182;DHT22;13927;51.534;11.866;2023-04-22T11:42:43;25.80;99.90
26182;DHT22;13927;51.534;11.866;2023-04-22T11:45:10;25.70;99.90
26182;DHT22;13927;51.534;11.866;2023-04-22T11:47:39;25.80;99.90
26182;DHT22;13927;51.534;11.866;2023-04-22T11:50:08;26.00;99.90
26182;DHT22;13927;51.534;11.866;2023-04-22T11:55:16;26.00;99.90
26182;DHT22;13927;51.534;11.866;2023-04-22T11:57:45;26.20;99.90
26182;DHT22;13927;51.534;11.866;2023-04-22T12:00:17;26.20;99.90
26182;DHT22;13927;51.534;11.866;2023-04-22T12:02:54;26.50;99.90
26182;DHT22;13927;51.534;11.866;2023-04-22T12:05:38;26.90;99.90
26182;DHT22;13927;51.534;11.866;2023-04-22T12:08:10;27.10;99.90
26182;DHT22;13927;51.534;11.866;2023-04-22T12:10:42;27.30;99.90
26182;DHT22;13927;51.534;11.866;2023-04-22T12:14:03;27.40;99.90
26182;DHT22;13927;51.534;11.866;2023-04-22T12:16:13;27.40;99.90
26182;DHT22;13927;51.534;11.866;2023-04-22T12:18:52;27.50;99.90
26182;DHT22;13927;51.534;11.866;2023-04-22T12:21:24;27.50;99.90
26182;DHT22;13927;51.534;11.866;2023-04-22T12:24:01;27.50;99.90
26182;DHT22;13927;51.534;11.866;2023-04-22T12:26:32;27.60;99.90
26182;DHT22;13927;51.534;11.866;2023-04-22T12:28:59;27.50;99.90
26182;DHT22;13927;51.534;11.866;2023-04-22T12:31:26;27.50;99.90
26182;DHT22;13927;51.534;11.866;2023-04-22T12:33:52;27.50;99.90
26182;DHT22;13927;51.534;11.866;2023-04-22T12:36:19;27.50;99.90
26182;DHT22;13927;51.534;11.866;2023-04-22T12:38:46;27.50;99.90
26182;DHT22;13927;51.534;11.866;2023-04-22T12:41:13;27.40;98.90
26182;DHT22;13927;51.534;11.866;2023-04-22T12:43:41;27.50;99.90
26182;DHT22;13927;51.534;11.866;2023-04-22T12:46:08;27.70;99.90
26182;DHT22;13927;51.534;11.866;2023-04-22T12:48:35;27.80;99.90
26182;DHT22;13927;51.534;11.866;2023-04-22T12:51:05;27.80;99.90
26182;DHT22;13927;51.534;11.866;2023-04-22T12:53:31;27.60;98.90
26182;DHT22;13927;51.534;11.866;2023-04-22T12:55:57;27.70;99.90
26182;DHT22;13927;51.534;11.866;2023-04-22T12:58:24;27.90;99.90
26182;DHT22;13927;51.534;11.866;2023-04-22T13:00:50;28.10;99.90
26182;DHT22;13927;51.534;11.866;2023-04-22T13:03:17;27.70;99.50
26182;DHT22;13927;51.534;11.866;2023-04-22T13:05:44;27.50;99.90
26182;DHT22;13927;51.534;11.866;2023-04-22T13:08:10;27.20;99.90
26182;DHT22;13927;51.534;11.866;2023-04-22T13:10:36;26.90;99.90
26182;DHT22;13927;51.534;11.866;2023-04-22T13:13:02;26.90;99.90
26182;DHT22;13927;51.534;11.866;2023-04-22T13:15:28;27.10;99.90
26182;DHT22;13927;51.534;11.866;2023-04-22T13:17:55;27.40;99.90
26182;DHT22;13927;51.534;11.866;2023-04-22T13:20:21;27.70;99.90
26182;DHT22;13927;51.534;11.866;2023-04-22T13:22:46;28.00;99.90
26182;DHT22;13927;51.534;11.866;2023-04-22T13:25:12;27.90;99.70
26182;DHT22;13927;51.534;11.866;2023-04-22T13:27:39;27.50;99.90
26182;DHT22;13927;51.534;11.866;2023-04-22T13:30:06;27.30;99.90
26182;DHT22;13927;51.534;11.866;2023-04-22T13:32:33;27.40;99.90
26182;DHT22;13927;51.534;11.866;2023-04-22T13:35:00;27.50;99.90
26182;DHT22;13927;51.534;11.866;2023-04-22T13:37:26;27.50;99.90
26182;DHT22;13927;51.534;11.866;2023-04-22T13:39:52;27.50;99.90
26182;DHT22;13927;51.534;11.866;2023-04-22T13:42:19;27.60;99.90
26182;DHT22;13927;51.534;11.866;2023-04-22T13:44:45;27.60;99.90
26182;DHT22;13927;51.534;11.866;2023-04-22T13:47:11;27.50;99.90
26182;DHT22;13927;51.534;11.866;2023-04-22T13:49:37;27.10;99.90
26182;DHT22;13927;51.534;11.866;2023-04-22T13:52:04;26.90;99.90
26182;DHT22;13927;51.534;11.866;2023-04-22T13:54:32;26.80;99.90
26182;DHT22;13927;51.534;11.866;2023-04-22T13:56:58;26.90;99.90
26182;DHT22;13927;51.534;11.866;2023-04-22T13:59:25;27.10;99.90
26182;DHT22;13927;51.534;11.866;2023-04-22T14:01:53;27.40;99.90
26182;DHT22;13927;51.534;11.866;2023-04-22T14:04:19;27.70;99.90
26182;DHT22;13927;51.534;11.866;2023-04-22T14:06:46;27.80;99.90
26182;DHT22;13927;51.534;11.866;2023-04-22T14:09:13;27.60;99.90
26182;DHT22;13927;51.534;11.866;2023-04-22T14:11:40;27.40;99.90
26182;DHT22;13927;51.534;11.866;2023-04-22T14:14:07;26.90;99.80
26182;DHT22;13927;51.534;11.866;2023-04-22T14:16:33;26.60;99.90
26182;DHT22;13927;51.534;11.866;2023-04-22T14:19:00;26.50;99.90
26182;DHT22;13927;51.534;11.866;2023-04-22T14:21:27;26.80;99.90
26182;DHT22;13927;51.534;11.866;2023-04-22T14:23:53;27.20;99.90
26182;DHT22;13927;51.534;11.866;2023-04-22T14:26:20;27.70;99.90
26182;DHT22;13927;51.534;11.866;2023-04-22T14:28:47;28.00;99.90
26182;DHT22;13927;51.534;11.866;2023-04-22T14:31:14;28.30;99.90
26182;DHT22;13927;51.534;11.866;2023-04-22T14:33:40;28.60;99.90
26182;DHT22;13927;51.534;11.866;2023-04-22T14:36:07;28.80;99.90
26182;DHT22;13927;51.534;11.866;2023-04-22T14:38:33;28.90;99.90
26182;DHT22;13927;51.534;11.866;2023-04-22T14:41:00;28.90;99.90
26182;DHT22;13927;51.534;11.866;2023-04-22T14:43:26;28.80;98.80
26182;DHT22;13927;51.534;11.866;2023-04-22T14:45:52;28.70;99.20
26182;DHT22;13927;51.534;11.866;2023-04-22T14:48:18;28.60;97.50
26182;DHT22;13927;51.534;11.866;2023-04-22T14:50:44;28.30;99.90
26182;DHT22;13927;51.534;11.866;2023-04-22T14:53:10;28.30;99.90
26182;DHT22;13927;51.534;11.866;2023-04-22T14:55:36;28.00;99.70
26182;DHT22;13927;51.534;11.866;2023-04-22T14:58:02;27.20;99.10
26182;DHT22;13927;51.534;11.866;2023-04-22T15:00:28;27.20;99.90
26182;DHT22;13927;51.534;11.866;2023-04-22T15:02:55;27.20;99.90
26182;DHT22;13927;51.534;11.866;2023-04-22T15:05:21;27.20;99.90
26182;DHT22;13927;51.534;11.866;2023-04-22T15:07:49;27.30;99.90
26182;DHT22;13927;51.534;11.866;2023-04-22T15:10:15;27.40;99.90
26182;DHT22;13927;51.534;11.866;2023-04-22T15:12:42;27.30;99.90
26182;DHT22;13927;51.534;11.866;2023-04-22T15:15:09;27.00;99.30
26182;DHT22;13927;51.534;11.866;2023-04-22T15:17:39;26.60;99.30
26182;DHT22;13927;51.534;11.866;2023-04-22T15:20:06;26.40;99.90
26182;DHT22;13927;51.534;11.866;2023-04-22T15:22:32;26.20;99.90
26182;DHT22;13927;51.534;11.866;2023-04-22T15:24:58;26.20;99.90
26182;DHT22;13927;51.534;11.866;2023-04-22T15:27:25;26.10;99.90
26182;DHT22;13927;51.534;11.866;2023-04-22T15:29:51;26.00;99.90
26182;DHT22;13927;51.534;11.866;2023-04-22T15:32:19;25.90;99.90
26182;DHT22;13927;51.534;11.866;2023-04-22T15:34:46;25.80;99.90
26182;DHT22;13927;51.534;11.866;2023-04-22T15:37:14;25.60;99.90
26182;DHT22;13927;51.534;11.866;2023-04-22T15:39:41;25.40;99.90
26182;DHT22;13927;51.534;11.866;2023-04-22T15:42:08;25.20;99.90